createdAt,value
2023-03-10T00:05:16.991Z,22.8
2023-03-10T00:11:11.233Z,22.5
2023-03-10T00:17:04.311Z,22.6
2023-03-10T00:22:57.283Z,23.3
2023-03-10T00:28:34.808Z,22.9
2023-03-10T00:34:28.788Z,22.7
2023-03-10T00:40:07.152Z,22.6
2023-03-10T00:46:00.569Z,23.3
2023-03-10T00:51:21.849Z,23.2
2023-03-10T00:56:59.531Z,22.9
2023-03-10T01:03:07.866Z,22.7
2023-03-10T01:09:00.950Z,22.9
2023-03-10T01:14:54.473Z,23.3
2023-03-10T01:20:32.004Z,23.1
2023-03-10T01:26:08.822Z,22.9
2023-03-10T01:32:02.421Z,22.7
2023-03-10T01:37:24.524Z,23.2
2023-03-10T01:43:03.594Z,23.3
2023-03-10T01:48:57.013Z,23
2023-03-10T01:54:49.988Z,22.8
2023-03-10T02:00:42.878Z,22.8
2023-03-10T02:06:20.610Z,23.5
2023-03-10T02:11:31.551Z,23.3
2023-03-10T02:17:24.249Z,23
2023-03-10T02:23:02.048Z,22.8
2023-03-10T02:29:03.546Z,23
2023-03-10T02:35:08.012Z,23.4
2023-03-10T02:40:45.499Z,23.1
2023-03-10T02:46:22.872Z,22.9
2023-03-10T02:51:45.161Z,22.8
2023-03-10T02:57:23.114Z,23.3
2023-03-10T03:03:00.180Z,23.4
2023-03-10T03:08:36.713Z,23.1
2023-03-10T03:13:58.904Z,22.9
2023-03-10T03:19:54.385Z,22.8
2023-03-10T03:25:15.911Z,23.4
2023-03-10T03:31:11.590Z,23.4
2023-03-10T03:37:05.516Z,23.1
2023-03-10T03:42:43.343Z,22.9
2023-03-10T03:48:38.814Z,22.9
2023-03-10T03:54:32.320Z,23.5
2023-03-10T04:00:24.531Z,23.3
2023-03-10T04:05:47.140Z,23.1
2023-03-10T04:11:39.440Z,22.9
2023-03-10T04:17:32.691Z,23
2023-03-10T04:23:10.211Z,23.6
2023-03-10T04:29:04.098Z,23.3
2023-03-10T04:34:50.830Z,23.1
2023-03-10T04:40:27.741Z,22.8
2023-03-10T04:46:32.177Z,23.1
2023-03-10T04:52:08.243Z,23.6
2023-03-10T04:57:29.986Z,23.3
2023-03-10T05:03:32.199Z,23.1
2023-03-10T05:09:26.694Z,22.9
2023-03-10T05:15:18.910Z,23.2
2023-03-10T05:21:12.013Z,23.6
2023-03-10T05:26:34.953Z,23.2
2023-03-10T05:32:12.462Z,23.1
2023-03-10T05:37:34.507Z,22.8
2023-03-10T05:43:26.855Z,23.2
2023-03-10T05:49:19.777Z,23.6
2023-03-10T05:54:59.845Z,23.3
2023-03-10T06:00:52.285Z,23.1
2023-03-10T06:06:33.771Z,22.9
2023-03-10T06:12:27.385Z,22.8
2023-03-10T06:18:20.583Z,22.8
2023-03-10T06:24:13.867Z,23
2023-03-10T06:30:06.700Z,22.8
2023-03-10T06:35:44.411Z,22.6
2023-03-10T06:41:23.336Z,22.5
2023-03-10T06:47:02.157Z,22.4
2023-03-10T06:52:39.498Z,22.3
2023-03-10T06:58:17.227Z,22.4
2023-03-10T07:03:38.691Z,22.8
2023-03-10T07:09:17.173Z,22.7
2023-03-10T07:15:11.910Z,22.5
2023-03-10T07:20:50.006Z,22.4
2023-03-10T07:26:43.827Z,22.3
2023-03-10T07:32:37.254Z,22.2
2023-03-10T07:38:30.010Z,22.4
2023-03-10T07:44:23.934Z,22.8
2023-03-10T07:50:01.445Z,22.5
2023-03-10T07:55:39.422Z,22.4
2023-03-10T08:01:31.651Z,22.3
2023-03-10T08:07:26.316Z,22.2
2023-03-10T08:13:19.429Z,22.3
2023-03-10T08:18:58.204Z,22.7
2023-03-10T08:24:20.189Z,22.5
2023-03-10T08:30:13.811Z,22.3
2023-03-10T08:36:11.612Z,22.3
2023-03-10T08:42:10.597Z,22.2
2023-03-10T08:48:10.440Z,22.6
2023-03-10T08:53:33.025Z,22.6
2023-03-10T08:59:29.406Z,22.4
2023-03-10T09:05:26.393Z,22.2
2023-03-10T09:11:18.072Z,22.1
2023-03-10T09:17:28.615Z,22.2
2023-03-10T09:23:22.813Z,22.7
2023-03-10T09:29:15.148Z,22.5
2023-03-10T09:35:08.181Z,22.3
2023-03-10T09:41:13.465Z,22.2
2023-03-10T09:47:21.910Z,22.1
2023-03-10T09:53:13.783Z,22.6
2023-03-10T09:59:17.255Z,22.5
2023-03-10T10:05:18.337Z,22.3
2023-03-10T10:11:22.996Z,22.1
2023-03-10T10:18:18.331Z,21.9
2023-03-10T10:24:20.773Z,22.2
2023-03-10T10:30:15.865Z,22.4
2023-03-10T10:36:13.948Z,22.2
2023-03-10T10:42:13.594Z,22.1
2023-03-10T10:47:51.808Z,21.9
2023-03-10T10:53:29.302Z,22.1
2023-03-10T10:59:23.670Z,22.5
2023-03-10T11:05:16.633Z,22.3
2023-03-10T11:11:09.473Z,22.1
2023-03-10T11:16:31.495Z,22
2023-03-10T11:22:26.666Z,21.9
2023-03-10T11:28:19.133Z,22.1
2023-03-10T11:34:13.250Z,22.3
2023-03-10T11:39:58.355Z,22.1
2023-03-10T11:45:51.656Z,22
2023-03-10T11:51:43.032Z,21.9
2023-03-10T11:57:35.688Z,21.9
2023-03-10T12:03:29.696Z,21.8
2023-03-10T12:09:08.066Z,21.8
2023-03-10T12:15:01.546Z,22
2023-03-10T12:20:55.249Z,22.3
2023-03-10T12:26:46.596Z,22.1
2023-03-10T12:32:39.603Z,22
2023-03-10T12:38:18.424Z,21.9
2023-03-10T12:44:11.691Z,21.8
2023-03-10T12:50:05.319Z,22.3
2023-03-10T12:55:59.537Z,22.3
2023-03-10T13:01:57.186Z,22.1
2023-03-10T13:07:37.464Z,22
2023-03-10T13:12:59.776Z,21.9
2023-03-10T13:18:53.273Z,22.1
2023-03-10T13:24:15.228Z,22.3
2023-03-10T13:30:10.114Z,22.2
2023-03-10T13:36:03.066Z,22.1
2023-03-10T13:41:39.488Z,21.9
2023-03-10T13:47:30.147Z,21.9
2023-03-10T13:53:21.924Z,21.9
2023-03-10T13:59:13.296Z,21.9
2023-03-10T14:05:09.866Z,22.4
2023-03-10T14:11:03.620Z,22.2
2023-03-10T14:16:56.502Z,22.1
2023-03-10T14:22:34.001Z,21.9
2023-03-10T14:27:41.706Z,21.9
2023-03-10T14:33:04.588Z,21.9
2023-03-10T14:38:45.459Z,21.9
2023-03-10T14:44:38.661Z,21.8
2023-03-10T14:50:33.903Z,21.8
2023-03-10T14:56:38.249Z,21.8
2023-03-10T15:02:30.994Z,21.8
2023-03-10T15:08:20.782Z,21.7
2023-03-10T15:14:37.589Z,21.6
2023-03-10T15:20:31.299Z,21.6
2023-03-10T15:26:08.000Z,21.5
2023-03-10T15:32:00.536Z,21.4
2023-03-10T15:37:56.104Z,21.4
2023-03-10T15:44:01.056Z,21.3
2023-03-10T15:49:55.631Z,21.3
2023-03-10T15:55:47.668Z,21.2
2023-03-10T16:01:40.753Z,21.1
2023-03-10T16:07:33.499Z,21
2023-03-10T16:13:26.367Z,20.9
2023-03-10T16:19:04.565Z,20.9
2023-03-10T16:24:41.743Z,20.8
2023-03-10T16:30:35.817Z,20.8
2023-03-10T16:36:28.418Z,20.7
2023-03-10T16:42:21.865Z,20.6
2023-03-10T16:47:59.085Z,20.6
2023-03-10T16:52:49.745Z,20.6
2023-03-10T16:58:11.450Z,20.5
2023-03-10T17:03:33.750Z,20.4
2023-03-10T17:09:35.299Z,20.4
2023-03-10T17:15:31.215Z,20.4
2023-03-10T17:21:09.855Z,20.3
2023-03-10T17:27:04.359Z,20.3
2023-03-10T17:32:58.456Z,20.3
2023-03-10T17:38:50.412Z,20.2
2023-03-10T17:44:57.230Z,20.2
2023-03-10T17:50:50.231Z,20.1
2023-03-10T17:56:27.379Z,20.1
2023-03-10T18:02:20.997Z,20.1
2023-03-10T18:08:16.053Z,20.1
2023-03-10T18:14:08.440Z,20.1
2023-03-10T18:20:01.022Z,20
2023-03-10T18:25:38.164Z,20
2023-03-10T18:31:30.921Z,20
2023-03-10T18:37:24.625Z,19.9
2023-03-10T18:43:18.074Z,19.9
2023-03-10T18:48:54.521Z,19.9
2023-03-10T18:54:46.941Z,19.9
2023-03-10T19:00:24.462Z,19.8
2023-03-10T19:06:16.891Z,19.8
2023-03-10T19:12:11.627Z,19.8
2023-03-10T19:18:04.875Z,19.8
2023-03-10T19:23:57.764Z,19.8
2023-03-10T19:29:51.234Z,19.8
2023-03-10T19:35:28.997Z,19.7
2023-03-10T19:40:51.074Z,19.7
2023-03-10T19:46:44.573Z,19.7
2023-03-10T19:52:37.394Z,19.7
2023-03-10T19:58:14.757Z,19.6
2023-03-10T20:03:53.960Z,19.6
2023-03-10T20:09:31.356Z,19.6
2023-03-10T20:15:24.006Z,19.6
2023-03-10T20:21:16.809Z,19.6
2023-03-10T20:26:38.062Z,19.6
2023-03-10T20:32:15.633Z,19.6
2023-03-10T20:38:08.032Z,19.7
2023-03-10T20:43:46.492Z,20
2023-03-10T20:49:40.145Z,20.8
2023-03-10T20:55:32.799Z,20.9
2023-03-10T21:01:25.758Z,20.8
2023-03-10T21:07:04.056Z,21.3
2023-03-10T21:18:33.976Z,21
2023-03-10T21:23:42.176Z,21
2023-03-10T21:29:20.166Z,21
2023-03-10T21:35:12.784Z,21
2023-03-10T21:41:05.924Z,20.8
2023-03-10T21:46:58.556Z,20.8
2023-03-10T21:52:51.348Z,21.6
2023-03-10T21:58:44.621Z,22.1
2023-03-10T22:04:05.701Z,21.6
2023-03-10T22:09:58.617Z,21.9
2023-03-10T22:15:50.813Z,22.5
2023-03-10T22:21:27.672Z,22.3
2023-03-10T22:27:20.009Z,21.8
2023-03-10T22:33:12.844Z,22.3
2023-03-10T22:39:05.564Z,22.7
2023-03-10T22:44:26.771Z,22.4
2023-03-10T22:49:49.678Z,22.2
2023-03-10T22:55:42.412Z,22.2
2023-03-10T23:01:20.094Z,22.9
2023-03-10T23:06:41.970Z,22.8
2023-03-10T23:12:18.539Z,22.5
2023-03-10T23:18:25.060Z,22.3
2023-03-10T23:24:02.595Z,22.7
2023-03-10T23:29:55.676Z,23
2023-03-10T23:35:33.457Z,22.7
2023-03-10T23:40:54.620Z,22.6
2023-03-10T23:46:32.749Z,22.4
2023-03-10T23:52:10.912Z,22.9
2023-03-10T23:57:48.484Z,23.1
